sensor_id;sensor_type;location;lat;lon;timestamp;temperature;humidity
33149;DHT22;19506;51.040;3.856;2023-08-06T06:05:38;19.00;99.90
33149;DHT22;19506;51.040;3.856;2023-08-06T06:08:04;19.10;99.90
33149;DHT22;19506;51.040;3.856;2023-08-06T06:10:30;19.20;99.90
33149;DHT22;19506;51.040;3.856;2023-08-06T06:12:56;19.30;99.90
33149;DHT22;19506;51.040;3.856;2023-08-06T06:15:21;19.50;99.90
33149;DHT22;19506;51.040;3.856;2023-08-06T06:17:47;19.60;99.90
33149;DHT22;19506;51.040;3.856;2023-08-06T06:20:13;19.70;99.90
33149;DHT22;19506;51.040;3.856;2023-08-06T06:22:38;19.60;99.90
33149;DHT22;19506;51.040;3.856;2023-08-06T06:25:04;19.60;99.90
33149;DHT22;19506;51.040;3.856;2023-08-06T06:27:33;19.70;99.90
33149;DHT22;19506;51.040;3.856;2023-08-06T06:29:59;19.60;99.90
33149;DHT22;19506;51.040;3.856;2023-08-06T06:32:25;19.40;99.90
33149;DHT22;19506;51.040;3.856;2023-08-06T06:34:50;19.50;99.90
33149;DHT22;19506;51.040;3.856;2023-08-06T06:37:16;19.40;99.90
33149;DHT22;19506;51.040;3.856;2023-08-06T06:39:42;19.50;99.90
33149;DHT22;19506;51.040;3.856;2023-08-06T06:42:07;19.80;99.90
33149;DHT22;19506;51.040;3.856;2023-08-06T06:44:33;19.80;99.90
33149;DHT22;19506;51.040;3.856;2023-08-06T06:46:59;19.90;99.90
33149;DHT22;19506;51.040;3.856;2023-08-06T06:49:24;20.10;99.90
33149;DHT22;19506;51.040;3.856;2023-08-06T06:51:50;19.90;99.90
33149;DHT22;19506;51.040;3.856;2023-08-06T06:54:16;19.70;99.90
33149;DHT22;19506;51.040;3.856;2023-08-06T06:56:42;19.60;99.90
33149;DHT22;19506;51.040;3.856;2023-08-06T06:59:07;19.70;99.90
33149;DHT22;19506;51.040;3.856;2023-08-06T07:01:33;19.70;99.90
33149;DHT22;19506;51.040;3.856;2023-08-06T07:03:58;19.70;99.90
33149;DHT22;19506;51.040;3.856;2023-08-06T07:06:24;19.60;99.90
33149;DHT22;19506;51.040;3.856;2023-08-06T07:08:50;19.60;99.90
33149;DHT22;19506;51.040;3.856;2023-08-06T07:11:15;19.70;99.90
33149;DHT22;19506;51.040;3.856;2023-08-06T07:13:41;19.80;99.90
33149;DHT22;19506;51.040;3.856;2023-08-06T07:16:07;20.00;99.90
33149;DHT22;19506;51.040;3.856;2023-08-06T07:18:32;20.00;99.90
33149;DHT22;19506;51.040;3.856;2023-08-06T07:20:58;20.00;99.90
33149;DHT22;19506;51.040;3.856;2023-08-06T07:23:25;20.00;99.90
33149;DHT22;19506;51.040;3.856;2023-08-06T07:25:51;19.90;99.90
33149;DHT22;19506;51.040;3.856;2023-08-06T07:28:17;19.90;99.90
33149;DHT22;19506;51.040;3.856;2023-08-06T07:30:43;20.10;99.90
33149;DHT22;19506;51.040;3.856;2023-08-06T07:33:10;20.10;99.90
33149;DHT22;19506;51.040;3.856;2023-08-06T07:35:35;20.10;99.90
33149;DHT22;19506;51.040;3.856;2023-08-06T07:38:02;20.20;99.90
33149;DHT22;19506;51.040;3.856;2023-08-06T07:40:28;20.00;99.90
33149;DHT22;19506;51.040;3.856;2023-08-06T07:42:54;20.10;99.90
33149;DHT22;19506;51.040;3.856;2023-08-06T07:45:20;19.90;99.90
33149;DHT22;19506;51.040;3.856;2023-08-06T07:47:45;19.90;99.90
33149;DHT22;19506;51.040;3.856;2023-08-06T07:50:11;20.10;99.90
33149;DHT22;19506;51.040;3.856;2023-08-06T07:52:37;20.00;99.90
33149;DHT22;19506;51.040;3.856;2023-08-06T07:55:03;20.10;99.90
33149;DHT22;19506;51.040;3.856;2023-08-06T07:57:33;20.00;99.90
33149;DHT22;19506;51.040;3.856;2023-08-06T08:00:00;20.00;99.90
33149;DHT22;19506;51.040;3.856;2023-08-06T08:02:26;20.00;99.90
33149;DHT22;19506;51.040;3.856;2023-08-06T08:04:51;20.10;99.90
33149;DHT22;19506;51.040;3.856;2023-08-06T08:07:18;19.90;99.90
33149;DHT22;19506;51.040;3.856;2023-08-06T08:09:44;20.00;99.90
33149;DHT22;19506;51.040;3.856;2023-08-06T08:12:09;19.80;99.90
33149;DHT22;19506;51.040;3.856;2023-08-06T08:14:35;19.80;99.90
33149;DHT22;19506;51.040;3.856;2023-08-06T08:17:03;19.80;99.90
33149;DHT22;19506;51.040;3.856;2023-08-06T08:19:29;19.70;99.90
33149;DHT22;19506;51.040;3.856;2023-08-06T08:21:55;19.80;99.90
33149;DHT22;19506;51.040;3.856;2023-08-06T08:24:21;20.00;99.90
33149;DHT22;19506;51.040;3.856;2023-08-06T08:26:50;20.00;99.90
33149;DHT22;19506;51.040;3.856;2023-08-06T08:29:15;19.90;99.90
33149;DHT22;19506;51.040;3.856;2023-08-06T08:31:41;20.00;99.90
33149;DHT22;19506;51.040;3.856;2023-08-06T08:34:07;20.20;99.90
33149;DHT22;19506;51.040;3.856;2023-08-06T08:36:32;20.10;99.90
33149;DHT22;19506;51.040;3.856;2023-08-06T08:38:58;20.00;99.90
33149;DHT22;19506;51.040;3.856;2023-08-06T08:41:23;20.20;99.90
33149;DHT22;19506;51.040;3.856;2023-08-06T08:43:50;20.20;99.90
33149;DHT22;19506;51.040;3.856;2023-08-06T08:46:19;20.10;99.90
33149;DHT22;19506;51.040;3.856;2023-08-06T08:48:46;19.90;99.90
33149;DHT22;19506;51.040;3.856;2023-08-06T08:51:13;19.90;99.90
33149;DHT22;19506;51.040;3.856;2023-08-06T08:53:39;20.10;99.90
33149;DHT22;19506;51.040;3.856;2023-08-06T08:56:05;20.00;99.90
33149;DHT22;19506;51.040;3.856;2023-08-06T08:58:31;20.00;99.90
33149;DHT22;19506;51.040;3.856;2023-08-06T09:00:57;20.20;99.90
33149;DHT22;19506;51.040;3.856;2023-08-06T09:03:23;20.30;99.90
33149;DHT22;19506;51.040;3.856;2023-08-06T09:05:51;20.30;99.90
33149;DHT22;19506;51.040;3.856;2023-08-06T09:08:20;20.40;99.90
33149;DHT22;19506;51.040;3.856;2023-08-06T09:10:48;20.30;99.90
33149;DHT22;19506;51.040;3.856;2023-08-06T09:13:14;20.30;99.90
33149;DHT22;19506;51.040;3.856;2023-08-06T09:15:40;20.30;99.90
33149;DHT22;19506;51.040;3.856;2023-08-06T09:18:10;20.40;99.90
33149;DHT22;19506;51.040;3.856;2023-08-06T09:20:40;20.40;99.90
33149;DHT22;19506;51.040;3.856;2023-08-06T09:23:10;20.40;99.90
33149;DHT22;19506;51.040;3.856;2023-08-06T09:25:38;20.30;99.90
33149;DHT22;19506;51.040;3.856;2023-08-06T09:28:07;20.30;99.90
33149;DHT22;19506;51.040;3.856;2023-08-06T09:30:36;20.30;99.90
33149;DHT22;19506;51.040;3.856;2023-08-06T09:33:02;20.50;99.90
33149;DHT22;19506;51.040;3.856;2023-08-06T09:35:31;20.60;99.90
33149;DHT22;19506;51.040;3.856;2023-08-06T09:38:10;20.60;99.90
33149;DHT22;19506;51.040;3.856;2023-08-06T09:40:37;20.70;99.90
33149;DHT22;19506;51.040;3.856;2023-08-06T09:43:03;20.70;99.90
33149;DHT22;19506;51.040;3.856;2023-08-06T09:45:37;20.60;99.90
33149;DHT22;19506;51.040;3.856;2023-08-06T09:48:04;20.70;99.90
33149;DHT22;19506;51.040;3.856;2023-08-06T09:50:33;20.50;99.90
33149;DHT22;19506;51.040;3.856;2023-08-06T09:53:00;20.60;99.90
33149;DHT22;19506;51.040;3.856;2023-08-06T09:55:26;20.60;99.90
33149;DHT22;19506;51.040;3.856;2023-08-06T09:57:53;20.70;99.90
33149;DHT22;19506;51.040;3.856;2023-08-06T10:00:19;20.60;99.90
33149;DHT22;19506;51.040;3.856;2023-08-06T10:02:49;20.50;99.90
33149;DHT22;19506;51.040;3.856;2023-08-06T10:05:17;20.60;99.90
33149;DHT22;19506;51.040;3.856;2023-08-06T10:07:44;20.70;99.90
33149;DHT22;19506;51.040;3.856;2023-08-06T10:10:10;20.70;99.90
33149;DHT22;19506;51.040;3.856;2023-08-06T10:12:40;20.70;99.90
33149;DHT22;19506;51.040;3.856;2023-08-06T10:15:11;20.70;99.90
33149;DHT22;19506;51.040;3.856;2023-08-06T10:17:38;20.70;99.90
33149;DHT22;19506;51.040;3.856;2023-08-06T10:20:08;20.80;99.90
33149;DHT22;19506;51.040;3.856;2023-08-06T10:22:35;20.80;99.90
33149;DHT22;19506;51.040;3.856;2023-08-06T10:25:02;21.10;99.90
33149;DHT22;19506;51.040;3.856;2023-08-06T10:27:35;21.00;99.90
33149;DHT22;19506;51.040;3.856;2023-08-06T10:32:50;21.00;99.90
33149;DHT22;19506;51.040;3.856;2023-08-06T10:38:08;20.80;99.90
33149;DHT22;19506;51.040;3.856;2023-08-06T10:40:40;20.90;99.90
33149;DHT22;19506;51.040;3.856;2023-08-06T10:43:06;20.80;99.90
33149;DHT22;19506;51.040;3.856;2023-08-06T10:45:35;20.90;99.90
33149;DHT22;19506;51.040;3.856;2023-08-06T10:48:01;20.80;99.90
33149;DHT22;19506;51.040;3.856;2023-08-06T10:50:27;20.80;99.90
33149;DHT22;19506;51.040;3.856;2023-08-06T10:52:53;20.90;99.90
33149;DHT22;19506;51.040;3.856;2023-08-06T10:55:27;21.00;99.90
33149;DHT22;19506;51.040;3.856;2023-08-06T10:57:53;21.00;99.90
33149;DHT22;19506;51.040;3.856;2023-08-06T11:00:21;20.90;99.90
33149;DHT22;19506;51.040;3.856;2023-08-06T11:02:48;20.70;99.90
33149;DHT22;19506;51.040;3.856;2023-08-06T11:05:14;20.90;99.90
33149;DHT22;19506;51.040;3.856;2023-08-06T11:07:40;20.90;99.90
33149;DHT22;19506;51.040;3.856;2023-08-06T11:10:10;20.80;99.90
33149;DHT22;19506;51.040;3.856;2023-08-06T11:12:37;20.70;99.90
33149;DHT22;19506;51.040;3.856;2023-08-06T11:15:03;20.70;99.90
33149;DHT22;19506;51.040;3.856;2023-08-06T11:17:30;20.70;99.90
33149;DHT22;19506;51.040;3.856;2023-08-06T11:19:58;20.80;99.90
33149;DHT22;19506;51.040;3.856;2023-08-06T11:22:24;20.80;99.90
33149;DHT22;19506;51.040;3.856;2023-08-06T11:24:50;20.90;99.90
33149;DHT22;19506;51.040;3.856;2023-08-06T11:27:16;21.00;99.90
33149;DHT22;19506;51.040;3.856;2023-08-06T11:29:43;21.10;99.90
33149;DHT22;19506;51.040;3.856;2023-08-06T11:32:09;21.10;99.90
33149;DHT22;19506;51.040;3.856;2023-08-06T11:34:36;21.10;99.90
33149;DHT22;19506;51.040;3.856;2023-08-06T11:37:05;21.10;99.90
33149;DHT22;19506;51.040;3.856;2023-08-06T11:39:32;21.10;99.90
33149;DHT22;19506;51.040;3.856;2023-08-06T11:41:58;21.10;99.90
33149;DHT22;19506;51.040;3.856;2023-08-06T11:44:31;21.10;99.90
33149;DHT22;19506;51.040;3.856;2023-08-06T11:47:00;21.20;99.90
33149;DHT22;19506;51.040;3.856;2023-08-06T11:49:43;21.20;99.90
33149;DHT22;19506;51.040;3.856;2023-08-06T11:52:22;21.10;99.90
33149;DHT22;19506;51.040;3.856;2023-08-06T11:55:04;21.20;99.90
33149;DHT22;19506;51.040;3.856;2023-08-06T11:57:37;21.20;99.90
33149;DHT22;19506;51.040;3.856;2023-08-06T12:00:08;21.20;99.90
33149;DHT22;19506;51.040;3.856;2023-08-06T12:02:34;21.10;99.90
33149;DHT22;19506;51.040;3.856;2023-08-06T12:05:16;21.20;99.90
33149;DHT22;19506;51.040;3.856;2023-08-06T12:07:44;21.10;99.90
33149;DHT22;19506;51.040;3.856;2023-08-06T12:10:10;21.10;99.90
33149;DHT22;19506;51.040;3.856;2023-08-06T12:12:36;21.10;99.90
33149;DHT22;19506;51.040;3.856;2023-08-06T12:15:03;21.20;99.90
33149;DHT22;19506;51.040;3.856;2023-08-06T12:17:29;21.20;99.90
33149;DHT22;19506;51.040;3.856;2023-08-06T12:19:54;21.20;99.90
33149;DHT22;19506;51.040;3.856;2023-08-06T12:22:20;21.30;99.90
33149;DHT22;19506;51.040;3.856;2023-08-06T12:24:46;21.20;99.90
33149;DHT22;19506;51.040;3.856;2023-08-06T12:27:12;21.20;99.90
33149;DHT22;19506;51.040;3.856;2023-08-06T12:29:47;21.30;99.90
33149;DHT22;19506;51.040;3.856;2023-08-06T12:32:13;21.30;99.90
33149;DHT22;19506;51.040;3.856;2023-08-06T12:34:40;21.30;99.90
33149;DHT22;19506;51.040;3.856;2023-08-06T12:37:06;21.30;99.90
33149;DHT22;19506;51.040;3.856;2023-08-06T12:39:35;21.30;99.90
33149;DHT22;19506;51.040;3.856;2023-08-06T12:42:02;21.40;99.90
33149;DHT22;19506;51.040;3.856;2023-08-06T12:44:28;21.40;99.90
33149;DHT22;19506;51.040;3.856;2023-08-06T12:46:54;21.40;99.90
33149;DHT22;19506;51.040;3.856;2023-08-06T12:49:20;21.40;99.90
33149;DHT22;19506;51.040;3.856;2023-08-06T12:51:49;21.50;99.90
33149;DHT22;19506;51.040;3.856;2023-08-06T12:54:16;21.50;99.90
33149;DHT22;19506;51.040;3.856;2023-08-06T12:56:42;21.50;99.90
33149;DHT22;19506;51.040;3.856;2023-08-06T12:59:08;21.50;99.90
33149;DHT22;19506;51.040;3.856;2023-08-06T13:01:34;21.40;99.90
33149;DHT22;19506;51.040;3.856;2023-08-06T13:04:00;21.50;99.90
33149;DHT22;19506;51.040;3.856;2023-08-06T13:06:26;21.40;99.90
33149;DHT22;19506;51.040;3.856;2023-08-06T13:08:51;21.40;99.90
33149;DHT22;19506;51.040;3.856;2023-08-06T13:11:17;21.40;99.90
33149;DHT22;19506;51.040;3.856;2023-08-06T13:13:44;21.50;99.90
33149;DHT22;19506;51.040;3.856;2023-08-06T13:16:10;21.50;99.90
33149;DHT22;19506;51.040;3.856;2023-08-06T13:18:35;21.50;99.90
33149;DHT22;19506;51.040;3.856;2023-08-06T13:21:01;21.60;99.90
33149;DHT22;19506;51.040;3.856;2023-08-06T13:23:27;21.60;99.90
33149;DHT22;19506;51.040;3.856;2023-08-06T13:25:53;21.50;99.90
33149;DHT22;19506;51.040;3.856;2023-08-06T13:28:19;21.50;99.90
33149;DHT22;19506;51.040;3.856;2023-08-06T13:30:45;21.50;99.90
33149;DHT22;19506;51.040;3.856;2023-08-06T13:33:11;21.50;99.90
33149;DHT22;19506;51.040;3.856;2023-08-06T13:35:38;21.60;99.90
33149;DHT22;19506;51.040;3.856;2023-08-06T13:38:04;21.70;99.90
33149;DHT22;19506;51.040;3.856;2023-08-06T13:40:31;21.70;99.90
33149;DHT22;19506;51.040;3.856;2023-08-06T13:42:57;21.70;99.90
33149;DHT22;19506;51.040;3.856;2023-08-06T13:45:23;21.60;99.90
33149;DHT22;19506;51.040;3.856;2023-08-06T13:47:49;21.70;99.90
33149;DHT22;19506;51.040;3.856;2023-08-06T13:50:15;21.70;99.90
33149;DHT22;19506;51.040;3.856;2023-08-06T13:52:40;21.70;99.90
33149;DHT22;19506;51.040;3.856;2023-08-06T13:55:06;21.70;99.90
33149;DHT22;19506;51.040;3.856;2023-08-06T13:57:34;21.70;99.90
33149;DHT22;19506;51.040;3.856;2023-08-06T14:00:00;21.70;99.90
33149;DHT22;19506;51.040;3.856;2023-08-06T14:02:25;21.80;99.90
33149;DHT22;19506;51.040;3.856;2023-08-06T14:04:52;21.80;99.90
33149;DHT22;19506;51.040;3.856;2023-08-06T14:07:18;21.80;99.90
33149;DHT22;19506;51.040;3.856;2023-08-06T14:09:44;21.70;99.90
33149;DHT22;19506;51.040;3.856;2023-08-06T14:12:10;21.70;99.90
33149;DHT22;19506;51.040;3.856;2023-08-06T14:14:36;21.80;99.90
33149;DHT22;19506;51.040;3.856;2023-08-06T14:17:01;21.80;99.90
33149;DHT22;19506;51.040;3.856;2023-08-06T14:19:27;21.80;99.90
33149;DHT22;19506;51.040;3.856;2023-08-06T14:21:53;21.80;99.90
33149;DHT22;19506;51.040;3.856;2023-08-06T14:24:19;21.80;99.90
33149;DHT22;19506;51.040;3.856;2023-08-06T14:26:44;21.80;99.90
33149;DHT22;19506;51.040;3.856;2023-08-06T14:29:10;21.90;99.90
33149;DHT22;19506;51.040;3.856;2023-08-06T14:31:36;22.00;99.90
33149;DHT22;19506;51.040;3.856;2023-08-06T14:34:01;22.10;99.90
33149;DHT22;19506;51.040;3.856;2023-08-06T14:36:27;22.20;99.90
33149;DHT22;19506;51.040;3.856;2023-08-06T14:38:53;22.30;99.90
33149;DHT22;19506;51.040;3.856;2023-08-06T14:41:18;22.20;99.90
33149;DHT22;19506;51.040;3.856;2023-08-06T14:43:44;22.20;99.90
33149;DHT22;19506;51.040;3.856;2023-08-06T14:46:09;22.10;99.90
33149;DHT22;19506;51.040;3.856;2023-08-06T14:48:35;22.10;99.90
33149;DHT22;19506;51.040;3.856;2023-08-06T14:51:01;22.00;99.90
33149;DHT22;19506;51.040;3.856;2023-08-06T14:53:26;22.00;99.90
33149;DHT22;19506;51.040;3.856;2023-08-06T14:55:52;21.90;99.90
33149;DHT22;19506;51.040;3.856;2023-08-06T14:58:19;21.90;99.90
33149;DHT22;19506;51.040;3.856;2023-08-06T15:00:45;21.90;99.90
33149;DHT22;19506;51.040;3.856;2023-08-06T15:03:11;21.90;99.90
33149;DHT22;19506;51.040;3.856;2023-08-06T15:05:37;21.80;99.90
33149;DHT22;19506;51.040;3.856;2023-08-06T15:08:02;21.70;99.90
33149;DHT22;19506;51.040;3.856;2023-08-06T15:10:28;21.70;99.90
33149;DHT22;19506;51.040;3.856;2023-08-06T15:12:54;21.60;99.90
33149;DHT22;19506;51.040;3.856;2023-08-06T15:15:20;21.70;99.90
33149;DHT22;19506;51.040;3.856;2023-08-06T15:17:47;21.70;99.90
33149;DHT22;19506;51.040;3.856;2023-08-06T15:20:13;21.70;99.90
33149;DHT22;19506;51.040;3.856;2023-08-06T15:22:39;21.70;99.90
33149;DHT22;19506;51.040;3.856;2023-08-06T15:25:05;21.70;99.90
33149;DHT22;19506;51.040;3.856;2023-08-06T15:27:31;21.70;99.90
33149;DHT22;19506;51.040;3.856;2023-08-06T15:29:58;21.70;99.90
33149;DHT22;19506;51.040;3.856;2023-08-06T15:32:23;21.90;99.90
33149;DHT22;19506;51.040;3.856;2023-08-06T15:34:50;21.90;99.90
33149;DHT22;19506;51.040;3.856;2023-08-06T15:37:16;21.90;99.90
33149;DHT22;19506;51.040;3.856;2023-08-06T15:39:41;21.90;99.90
33149;DHT22;19506;51.040;3.856;2023-08-06T15:42:07;21.90;99.90
33149;DHT22;19506;51.040;3.856;2023-08-06T15:44:33;21.80;99.90
33149;DHT22;19506;51.040;3.856;2023-08-06T15:46:58;21.80;99.90
33149;DHT22;19506;51.040;3.856;2023-08-06T15:49:24;21.80;99.90
33149;DHT22;19506;51.040;3.856;2023-08-06T15:51:50;21.80;99.90
33149;DHT22;19506;51.040;3.856;2023-08-06T15:54:15;21.80;99.90
33149;DHT22;19506;51.040;3.856;2023-08-06T15:56:41;21.70;99.90
33149;DHT22;19506;51.040;3.856;2023-08-06T15:59:29;21.70;99.90
33149;DHT22;19506;51.040;3.856;2023-08-06T16:01:55;21.70;99.90
33149;DHT22;19506;51.040;3.856;2023-08-06T16:04:28;21.70;99.90
33149;DHT22;19506;51.040;3.856;2023-08-06T16:06:54;21.70;99.90
33149;DHT22;19506;51.040;3.856;2023-08-06T16:09:20;21.80;99.90
33149;DHT22;19506;51.040;3.856;2023-08-06T16:11:52;21.70;99.90
33149;DHT22;19506;51.040;3.856;2023-08-06T16:14:19;21.70;99.90
33149;DHT22;19506;51.040;3.856;2023-08-06T16:16:46;21.70;99.90
33149;DHT22;19506;51.040;3.856;2023-08-06T16:19:12;21.70;99.90
33149;DHT22;19506;51.040;3.856;2023-08-06T16:21:37;21.70;99.90
33149;DHT22;19506;51.040;3.856;2023-08-06T16:24:03;21.70;99.90
33149;DHT22;19506;51.040;3.856;2023-08-06T16:26:31;21.80;99.90
33149;DHT22;19506;51.040;3.856;2023-08-06T16:28:57;21.70;99.90
33149;DHT22;19506;51.040;3.856;2023-08-06T16:31:23;21.70;99.90
33149;DHT22;19506;51.040;3.856;2023-08-06T16:33:49;21.70;99.90
33149;DHT22;19506;51.040;3.856;2023-08-06T16:36:15;21.70;99.90
33149;DHT22;19506;51.040;3.856;2023-08-06T16:38:41;21.70;99.90
33149;DHT22;19506;51.040;3.856;2023-08-06T16:41:06;21.80;99.90
33149;DHT22;19506;51.040;3.856;2023-08-06T16:43:32;21.80;99.90
33149;DHT22;19506;51.040;3.856;2023-08-06T16:45:58;21.90;99.90
33149;DHT22;19506;51.040;3.856;2023-08-06T16:48:24;21.80;99.90
33149;DHT22;19506;51.040;3.856;2023-08-06T16:50:58;21.70;99.90
33149;DHT22;19506;51.040;3.856;2023-08-06T16:53:24;21.60;99.90
33149;DHT22;19506;51.040;3.856;2023-08-06T16:55:50;21.60;99.90
33149;DHT22;19506;51.040;3.856;2023-08-06T16:58:16;21.50;99.90
33149;DHT22;19506;51.040;3.856;2023-08-06T17:00:45;21.50;99.90
33149;DHT22;19506;51.040;3.856;2023-08-06T17:03:11;21.50;99.90
33149;DHT22;19506;51.040;3.856;2023-08-06T17:05:37;21.50;99.90
33149;DHT22;19506;51.040;3.856;2023-08-06T17:08:03;21.50;99.90
33149;DHT22;19506;51.040;3.856;2023-08-06T17:10:33;21.50;99.90
33149;DHT22;19506;51.040;3.856;2023-08-06T17:13:02;21.50;99.90
33149;DHT22;19506;51.040;3.856;2023-08-06T17:15:29;21.70;99.90
33149;DHT22;19506;51.040;3.856;2023-08-06T17:17:55;21.80;99.90
33149;DHT22;19506;51.040;3.856;2023-08-06T17:20:21;21.90;99.90
33149;DHT22;19506;51.040;3.856;2023-08-06T17:22:47;22.00;99.90
33149;DHT22;19506;51.040;3.856;2023-08-06T17:25:13;22.00;99.90
33149;DHT22;19506;51.040;3.856;2023-08-06T17:27:38;22.00;99.90
33149;DHT22;19506;51.040;3.856;2023-08-06T17:30:05;22.10;99.90
33149;DHT22;19506;51.040;3.856;2023-08-06T17:32:31;22.10;99.90
33149;DHT22;19506;51.040;3.856;2023-08-06T17:34:57;22.10;99.90
33149;DHT22;19506;51.040;3.856;2023-08-06T17:37:23;22.20;99.90
33149;DHT22;19506;51.040;3.856;2023-08-06T17:39:48;22.20;99.90
33149;DHT22;19506;51.040;3.856;2023-08-06T17:42:14;22.00;99.90
33149;DHT22;19506;51.040;3.856;2023-08-06T17:44:40;22.00;99.90
33149;DHT22;19506;51.040;3.856;2023-08-06T17:47:06;22.00;99.90
33149;DHT22;19506;51.040;3.856;2023-08-06T17:49:32;21.90;99.90
33149;DHT22;19506;51.040;3.856;2023-08-06T17:51:58;21.80;99.90
33149;DHT22;19506;51.040;3.856;2023-08-06T17:54:24;21.70;99.90
33149;DHT22;19506;51.040;3.856;2023-08-06T17:56:53;21.70;99.90
33149;DHT22;19506;51.040;3.856;2023-08-06T17:59:19;21.70;99.90
33149;DHT22;19506;51.040;3.856;2023-08-06T18:01:45;21.70;99.90
33149;DHT22;19506;51.040;3.856;2023-08-06T18:04:10;21.70;99.90
33149;DHT22;19506;51.040;3.856;2023-08-06T18:06:36;21.70;99.90
33149;DHT22;19506;51.040;3.856;2023-08-06T18:09:03;21.70;99.90
33149;DHT22;19506;51.040;3.856;2023-08-06T18:11:29;21.70;99.90
33149;DHT22;19506;51.040;3.856;2023-08-06T18:13:54;21.70;99.90
33149;DHT22;19506;51.040;3.856;2023-08-06T18:16:20;21.80;99.90
33149;DHT22;19506;51.040;3.856;2023-08-06T18:18:46;22.00;99.90
33149;DHT22;19506;51.040;3.856;2023-08-06T18:21:11;22.10;99.90
33149;DHT22;19506;51.040;3.856;2023-08-06T18:23:37;22.00;99.90
33149;DHT22;19506;51.040;3.856;2023-08-06T18:26:04;22.00;99.90
33149;DHT22;19506;51.040;3.856;2023-08-06T18:28:29;21.90;99.90
33149;DHT22;19506;51.040;3.856;2023-08-06T18:30:55;22.00;99.90
33149;DHT22;19506;51.040;3.856;2023-08-06T18:33:21;21.90;99.90
33149;DHT22;19506;51.040;3.856;2023-08-06T18:35:47;21.70;99.90
33149;DHT22;19506;51.040;3.856;2023-08-06T18:38:13;21.50;99.90
33149;DHT22;19506;51.040;3.856;2023-08-06T18:40:39;21.50;99.90
33149;DHT22;19506;51.040;3.856;2023-08-06T18:43:05;21.40;99.90
33149;DHT22;19506;51.040;3.856;2023-08-06T18:45:31;21.30;99.90
33149;DHT22;19506;51.040;3.856;2023-08-06T18:48:07;21.40;99.90
33149;DHT22;19506;51.040;3.856;2023-08-06T18:50:33;21.50;99.90
33149;DHT22;19506;51.040;3.856;2023-08-06T18:53:03;21.50;99.90
33149;DHT22;19506;51.040;3.856;2023-08-06T18:55:31;21.50;99.90
33149;DHT22;19506;51.040;3.856;2023-08-06T18:58:01;21.60;99.90
33149;DHT22;19506;51.040;3.856;2023-08-06T19:00:29;21.60;99.90
33149;DHT22;19506;51.040;3.856;2023-08-06T19:02:55;21.60;99.90
33149;DHT22;19506;51.040;3.856;2023-08-06T19:05:20;21.60;99.90
33149;DHT22;19506;51.040;3.856;2023-08-06T19:07:46;21.50;99.90
33149;DHT22;19506;51.040;3.856;2023-08-06T19:10:12;21.50;99.90
33149;DHT22;19506;51.040;3.856;2023-08-06T19:12:37;21.50;99.90
33149;DHT22;19506;51.040;3.856;2023-08-06T19:15:03;21.40;99.90
33149;DHT22;19506;51.040;3.856;2023-08-06T19:17:29;21.30;99.90
33149;DHT22;19506;51.040;3.856;2023-08-06T19:19:55;21.20;99.90
33149;DHT22;19506;51.040;3.856;2023-08-06T19:22:20;21.10;99.90
33149;DHT22;19506;51.040;3.856;2023-08-06T19:24:46;21.10;99.90
33149;DHT22;19506;51.040;3.856;2023-08-06T19:27:12;21.10;99.90
33149;DHT22;19506;51.040;3.856;2023-08-06T19:29:37;21.00;99.90
33149;DHT22;19506;51.040;3.856;2023-08-06T19:32:05;21.00;99.90
33149;DHT22;19506;51.040;3.856;2023-08-06T19:34:32;21.00;99.90
33149;DHT22;19506;51.040;3.856;2023-08-06T19:36:57;21.00;99.90
33149;DHT22;19506;51.040;3.856;2023-08-06T19:39:23;21.20;99.90
33149;DHT22;19506;51.040;3.856;2023-08-06T19:41:49;21.40;99.90
33149;DHT22;19506;51.040;3.856;2023-08-06T19:44:14;21.40;99.90
33149;DHT22;19506;51.040;3.856;2023-08-06T19:46:40;21.50;99.90
33149;DHT22;19506;51.040;3.856;2023-08-06T19:49:06;21.40;99.90
33149;DHT22;19506;51.040;3.856;2023-08-06T19:51:31;21.50;99.90
33149;DHT22;19506;51.040;3.856;2023-08-06T19:53:57;21.40;99.90
33149;DHT22;19506;51.040;3.856;2023-08-06T19:56:22;21.40;99.90
33149;DHT22;19506;51.040;3.856;2023-08-06T19:58:48;21.40;99.90
33149;DHT22;19506;51.040;3.856;2023-08-06T20:01:14;21.40;99.90
33149;DHT22;19506;51.040;3.856;2023-08-06T20:03:40;21.40;99.90
33149;DHT22;19506;51.040;3.856;2023-08-06T20:06:09;21.40;99.90
33149;DHT22;19506;51.040;3.856;2023-08-06T20:08:34;21.30;99.90
33149;DHT22;19506;51.040;3.856;2023-08-06T20:11:01;21.20;99.90
33149;DHT22;19506;51.040;3.856;2023-08-06T20:13:28;21.20;99.90
33149;DHT22;19506;51.040;3.856;2023-08-06T20:15:55;21.20;99.90
33149;DHT22;19506;51.040;3.856;2023-08-06T20:18:21;21.20;99.90
33149;DHT22;19506;51.040;3.856;2023-08-06T20:20:50;21.10;99.90
33149;DHT22;19506;51.040;3.856;2023-08-06T20:23:16;21.20;99.90
33149;DHT22;19506;51.040;3.856;2023-08-06T20:25:41;21.20;99.90
33149;DHT22;19506;51.040;3.856;2023-08-06T20:28:07;21.10;99.90
33149;DHT22;19506;51.040;3.856;2023-08-06T20:30:33;21.10;99.90
33149;DHT22;19506;51.040;3.856;2023-08-06T20:32:59;21.10;99.90
33149;DHT22;19506;51.040;3.856;2023-08-06T20:35:25;21.00;99.90
33149;DHT22;19506;51.040;3.856;2023-08-06T20:37:51;21.10;99.90
33149;DHT22;19506;51.040;3.856;2023-08-06T20:40:17;21.20;99.90
33149;DHT22;19506;51.040;3.856;2023-08-06T20:42:43;21.10;99.90
33149;DHT22;19506;51.040;3.856;2023-08-06T20:45:09;21.10;99.90
33149;DHT22;19506;51.040;3.856;2023-08-06T20:47:35;21.20;99.90
33149;DHT22;19506;51.040;3.856;2023-08-06T20:50:01;21.10;99.90
33149;DHT22;19506;51.040;3.856;2023-08-06T20:52:27;21.10;99.90
33149;DHT22;19506;51.040;3.856;2023-08-06T20:54:52;21.10;99.90
33149;DHT22;19506;51.040;3.856;2023-08-06T20:57:18;21.10;99.90
33149;DHT22;19506;51.040;3.856;2023-08-06T20:59:44;21.10;99.90
33149;DHT22;19506;51.040;3.856;2023-08-06T21:02:09;21.10;99.90
33149;DHT22;19506;51.040;3.856;2023-08-06T21:04:35;21.10;99.90
33149;DHT22;19506;51.040;3.856;2023-08-06T21:07:01;21.10;99.90
33149;DHT22;19506;51.040;3.856;2023-08-06T21:09:26;21.10;99.90
33149;DHT22;19506;51.040;3.856;2023-08-06T21:11:52;21.00;99.90
33149;DHT22;19506;51.040;3.856;2023-08-06T21:14:18;21.00;99.90
33149;DHT22;19506;51.040;3.856;2023-08-06T21:16:43;21.00;99.90
33149;DHT22;19506;51.040;3.856;2023-08-06T21:19:09;21.00;99.90
33149;DHT22;19506;51.040;3.856;2023-08-06T21:21:35;21.00;99.90
33149;DHT22;19506;51.040;3.856;2023-08-06T21:24:01;21.00;99.90
33149;DHT22;19506;51.040;3.856;2023-08-06T21:26:27;21.00;99.90
33149;DHT22;19506;51.040;3.856;2023-08-06T21:28:52;21.00;99.90
33149;DHT22;19506;51.040;3.856;2023-08-06T21:31:18;21.00;99.90
33149;DHT22;19506;51.040;3.856;2023-08-06T21:33:44;21.00;99.90
33149;DHT22;19506;51.040;3.856;2023-08-06T21:36:11;21.00;99.90